Wetterdaten: Woche 11.06.12 - 17.06.12 (KW24)
Datum Zeit Temp. A. Feuchte A. Luftdruck Regen Wind Richtung Taupunkt Windchill Windben
11.06.2012 00:00 14,0 C 82 % 1007,2 hPa 0,0 l/m 3,7 km/h N 11,0 C 13,9 C 11,3 km/h
11.06.2012 01:00 13,8 C 82 % 1007,1 hPa 0,0 l/m 0,7 km/h N 10,7 C 13,8 C 4,0 km/h
11.06.2012 02:00 13,1 C 82 % 1006,5 hPa 0,0 l/m 0,2 km/h N 10,1 C 13,1 C 2,0 km/h
11.06.2012 03:00 12,8 C 81 % 1006,3 hPa 0,0 l/m 1,1 km/h N 9,6 C 12,8 C 5,2 km/h
11.06.2012 04:00 12,8 C 81 % 1006,3 hPa 0,0 l/m 2,0 km/h N 9,7 C 12,8 C 7,6 km/h
11.06.2012 05:00 12,9 C 82 % 1006,2 hPa 0,0 l/m 0,7 km/h N 9,9 C 12,9 C 5,2 km/h
11.06.2012 06:00 13,3 C 82 % 1006,2 hPa 0,0 l/m 3,5 km/h N 10,3 C 13,3 C 9,3 km/h
11.06.2012 07:00 13,6 C 83 % 1006,2 hPa 0,0 l/m 4,3 km/h N 10,8 C 13,6 C 11,7 km/h
11.06.2012 08:00 14,2 C 82 % 1005,9 hPa 0,3 l/m 1,2 km/h N 11,1 C 14,2 C 6,0 km/h
11.06.2012 09:00 14,7 C 82 % 1005,5 hPa 0,0 l/m 1,9 km/h N 11,7 C 14,7 C 7,6 km/h
11.06.2012 10:00 14,8 C 82 % 1005,2 hPa 0,0 l/m 3,1 km/h N 11,9 C 14,8 C 9,3 km/h
11.06.2012 11:00 15,8 C 80 % 1005,4 hPa 0,0 l/m 4,9 km/h N 12,3 C 15,8 C 11,3 km/h
11.06.2012 12:00 17,0 C 75 % 1005,1 hPa 0,0 l/m 5,8 km/h N 12,5 C 17,0 C 13,7 km/h
11.06.2012 13:00 18,5 C 70 % 1004,8 hPa 0,0 l/m 4,3 km/h N 12,8 C 18,5 C 10,9 km/h
11.06.2012 14:00 19,6 C 65 % 1004,5 hPa 0,3 l/m 1,9 km/h N 12,7 C 19,6 C 9,3 km/h
11.06.2012 15:00 20,3 C 62 % 1004,2 hPa 0,0 l/m 1,6 km/h N 12,6 C 20,3 C 8,0 km/h
11.06.2012 16:00 21,0 C 60 % 1003,9 hPa 0,0 l/m 1,4 km/h N 12,9 C 21,0 C 9,3 km/h
11.06.2012 17:00 20,6 C 61 % 1003,9 hPa 0,0 l/m 0,3 km/h N 12,6 C 20,6 C 4,4 km/h
11.06.2012 18:00 20,3 C 61 % 1004,1 hPa 0,0 l/m 1,5 km/h N 12,5 C 20,3 C 6,8 km/h
11.06.2012 19:00 19,5 C 67 % 1004,1 hPa 0,0 l/m 2,4 km/h N 13,1 C 19,5 C 10,4 km/h
11.06.2012 20:00 18,1 C 74 % 1004,1 hPa 0,0 l/m 0,9 km/h N 13,3 C 18,1 C 5,2 km/h
11.06.2012 21:00 17,5 C 77 % 1004,1 hPa 0,0 l/m 0,0 km/h N 13,4 C 17,5 C 2,0 km/h
11.06.2012 22:00 16,8 C 81 % 1004,0 hPa 0,0 l/m 0,2 km/h N 13,4 C 16,8 C 2,4 km/h
11.06.2012 23:00 15,9 C 82 % 1004,1 hPa 0,0 l/m 0,0 km/h N 12,7 C 15,9 C 0,8 km/h
12.06.2012 00:00 14,8 C 82 % 1004,0 hPa 0,0 l/m 0,0 km/h N 11,7 C 14,8 C 0,0 km/h
12.06.2012 01:00 13,9 C 82 % 1004,0 hPa 0,0 l/m 0,2 km/h N 10,8 C 13,9 C 2,0 km/h
12.06.2012 02:00 13,7 C 81 % 1003,9 hPa 0,0 l/m 0,0 km/h N 10,4 C 13,7 C 0,0 km/h
12.06.2012 03:00 13,6 C 80 % 1003,3 hPa 0,0 l/m 0,4 km/h N 10,2 C 13,6 C 3,6 km/h
12.06.2012 04:00 13,6 C 80 % 1002,8 hPa 0,3 l/m 0,0 km/h N 10,2 C 13,6 C 0,4 km/h
12.06.2012 05:00 13,7 C 80 % 1002,9 hPa 0,0 l/m 0,0 km/h N 10,3 C 13,7 C 1,2 km/h
12.06.2012 06:00 13,9 C 80 % 1003,2 hPa 0,0 l/m 0,0 km/h N 10,4 C 13,9 C 0,8 km/h
12.06.2012 07:00 14,6 C 80 % 1003,3 hPa 0,0 l/m 0,0 km/h N 11,2 C 14,6 C 3,2 km/h
12.06.2012 08:00 15,7 C 82 % 1003,3 hPa 0,3 l/m 0,0 km/h N 12,6 C 15,7 C 4,8 km/h
12.06.2012 09:00 17,8 C 75 % 1002,3 hPa 0,0 l/m 0,8 km/h N 13,2 C 17,8 C 7,2 km/h
12.06.2012 10:00 19,8 C 69 % 1001,7 hPa 0,0 l/m 0,8 km/h N 13,9 C 19,8 C 6,4 km/h
12.06.2012 11:00 20,0 C 69 % 1001,6 hPa 0,0 l/m 2,4 km/h N 14,0 C 20,0 C 12,1 km/h
12.06.2012 12:00 20,6 C 69 % 1001,1 hPa 0,0 l/m 1,6 km/h N 14,7 C 20,6 C 10,5 km/h
12.06.2012 13:00 20,5 C 69 % 1000,6 hPa 0,0 l/m 4,1 km/h N 14,6 C 20,5 C 14,1 km/h
12.06.2012 14:00 21,4 C 69 % 999,9 hPa 0,0 l/m 3,7 km/h N 15,5 C 21,4 C 14,9 km/h
12.06.2012 15:00 21,5 C 67 % 999,0 hPa 0,0 l/m 3,4 km/h N 15,0 C 21,4 C 13,6 km/h
12.06.2012 16:00 22,2 C 60 % 998,4 hPa 0,0 l/m 8,6 km/h N 13,9 C 21,5 C 23,7 km/h
12.06.2012 17:00 21,5 C 59 % 998,2 hPa 0,0 l/m 7,0 km/h N 13,1 C 21,2 C 20,5 km/h
12.06.2012 18:00 21,1 C 60 % 997,8 hPa 0,0 l/m 5,6 km/h N 13,1 C 21,0 C 17,7 km/h
12.06.2012 19:00 20,5 C 62 % 997,5 hPa 0,0 l/m 5,1 km/h N 12,9 C 20,4 C 14,9 km/h
12.06.2012 20:00 19,1 C 68 % 997,6 hPa 0,0 l/m 0,3 km/h N 12,9 C 19,1 C 4,0 km/h
12.06.2012 21:00 17,2 C 72 % 999,0 hPa 0,0 l/m 13,2 km/h N 12,1 C 14,6 C 34,2 km/h
12.06.2012 22:00 16,0 C 77 % 1000,1 hPa 0,0 l/m 7,7 km/h N 11,9 C 15,2 C 28,1 km/h
12.06.2012 23:00 14,8 C 78 % 1000,8 hPa 0,0 l/m 15,1 km/h N 11,0 C 11,0 C 35,4 km/h
13.06.2012 00:00 14,4 C 75 % 1001,0 hPa 0,0 l/m 13,6 km/h N 10,0 C 10,9 C 40,6 km/h
13.06.2012 01:00 13,6 C 79 % 1001,4 hPa 1,3 l/m 17,0 km/h N 10,0 C 8,8 C 42,7 km/h
13.06.2012 02:00 12,8 C 82 % 1001,6 hPa 1,3 l/m 14,8 km/h N 9,8 C 8,6 C 40,6 km/h
13.06.2012 03:00 13,1 C 82 % 1002,2 hPa 0,5 l/m 14,8 km/h N 10,0 C 8,9 C 38,2 km/h
13.06.2012 04:00 13,3 C 81 % 1002,6 hPa 0,3 l/m 15,5 km/h N 10,1 C 8,9 C 41,1 km/h
13.06.2012 05:00 13,1 C 82 % 1003,5 hPa 0,8 l/m 12,7 km/h N 10,1 C 9,8 C 39,0 km/h
13.06.2012 06:00 13,5 C 82 % 1004,7 hPa 0,3 l/m 15,0 km/h N 10,5 C 9,4 C 35,8 km/h
13.06.2012 07:00 13,6 C 82 % 1005,9 hPa 0,3 l/m 11,9 km/h N 10,6 C 10,7 C 30,6 km/h
13.06.2012 08:00 13,9 C 82 % 1006,8 hPa 0,0 l/m 13,5 km/h N 10,8 C 10,4 C 33,0 km/h
13.06.2012 09:00 14,9 C 79 % 1007,5 hPa 0,3 l/m 13,8 km/h N 11,4 C 11,5 C 37,4 km/h
13.06.2012 10:00 15,6 C 76 % 1008,3 hPa 0,0 l/m 13,8 km/h N 11,5 C 12,4 C 37,0 km/h
13.06.2012 11:00 16,6 C 72 % 1009,4 hPa 0,0 l/m 14,6 km/h N 11,6 C 13,4 C 38,2 km/h
13.06.2012 12:00 16,9 C 71 % 1010,4 hPa 0,0 l/m 13,5 km/h N 11,6 C 13,9 C 37,8 km/h
13.06.2012 13:00 16,5 C 69 % 1011,0 hPa 0,0 l/m 14,6 km/h N 10,9 C 13,2 C 39,0 km/h
13.06.2012 14:00 15,7 C 73 % 1011,5 hPa 0,0 l/m 11,9 km/h N 10,8 C 13,2 C 35,8 km/h
13.06.2012 15:00 14,5 C 80 % 1012,0 hPa 0,8 l/m 11,8 km/h N 11,1 C 11,8 C 34,2 km/h
13.06.2012 16:00 14,6 C 80 % 1012,0 hPa 0,3 l/m 7,7 km/h N 11,3 C 13,7 C 28,2 km/h
13.06.2012 17:00 16,7 C 73 % 1011,7 hPa 0,0 l/m 9,3 km/h N 11,7 C 15,3 C 29,4 km/h
13.06.2012 18:00 18,1 C 64 % 1012,0 hPa 0,0 l/m 14,6 km/h N 11,3 C 15,1 C 36,2 km/h
13.06.2012 19:00 17,1 C 66 % 1012,9 hPa 0,0 l/m 10,3 km/h N 10,7 C 15,4 C 26,2 km/h
13.06.2012 20:00 16,3 C 68 % 1013,4 hPa 0,0 l/m 3,4 km/h N 10,4 C 16,3 C 14,1 km/h
13.06.2012 21:00 15,8 C 70 % 1014,0 hPa 0,0 l/m 2,0 km/h N 10,3 C 15,8 C 8,5 km/h
13.06.2012 22:00 15,9 C 70 % 1013,9 hPa 0,0 l/m 5,1 km/h N 10,4 C 15,9 C 14,5 km/h
13.06.2012 23:00 15,5 C 72 % 1014,4 hPa 0,0 l/m 2,7 km/h N 10,4 C 15,5 C 9,7 km/h
14.06.2012 00:00 15,7 C 72 % 1014,8 hPa 0,0 l/m 4,1 km/h N 10,7 C 15,7 C 14,1 km/h
14.06.2012 01:00 15,1 C 73 % 1015,2 hPa 0,0 l/m 8,4 km/h N 10,3 C 13,8 C 23,8 km/h
14.06.2012 02:00 14,5 C 72 % 1015,6 hPa 0,0 l/m 10,1 km/h N 9,5 C 12,5 C 23,7 km/h
14.06.2012 03:00 14,5 C 73 % 1015,8 hPa 0,0 l/m 10,2 km/h N 9,6 C 12,4 C 23,7 km/h
14.06.2012 04:00 14,5 C 72 % 1016,0 hPa 0,0 l/m 10,0 km/h N 9,6 C 12,7 C 25,4 km/h
14.06.2012 05:00 14,5 C 73 % 1016,3 hPa 0,0 l/m 13,1 km/h N 9,8 C 11,4 C 30,2 km/h
14.06.2012 06:00 14,7 C 74 % 1016,8 hPa 0,0 l/m 12,5 km/h N 10,0 C 11,7 C 29,8 km/h
14.06.2012 07:00 15,5 C 72 % 1017,1 hPa 0,0 l/m 10,5 km/h N 10,4 C 13,5 C 27,8 km/h
14.06.2012 08:00 16,2 C 69 % 1017,5 hPa 0,0 l/m 11,6 km/h N 10,5 C 13,9 C 25,3 km/h
14.06.2012 09:00 17,0 C 67 % 1017,5 hPa 0,0 l/m 10,3 km/h N 10,8 C 15,2 C 26,1 km/h
14.06.2012 10:00 18,4 C 63 % 1017,7 hPa 0,0 l/m 9,1 km/h N 11,2 C 17,2 C 27,4 km/h
14.06.2012 11:00 19,0 C 59 % 1017,7 hPa 0,0 l/m 15,4 km/h N 10,7 C 16,0 C 34,6 km/h
14.06.2012 12:00 20,1 C 56 % 1017,6 hPa 0,0 l/m 12,6 km/h N 10,9 C 18,0 C 29,3 km/h
14.06.2012 13:00 21,3 C 54 % 1017,4 hPa 0,0 l/m 11,9 km/h N 11,6 C 19,6 C 27,3 km/h
14.06.2012 14:00 22,2 C 49 % 1017,0 hPa 0,0 l/m 9,7 km/h N 10,8 C 21,1 C 24,1 km/h
14.06.2012 15:00 22,4 C 43 % 1016,7 hPa 0,0 l/m 11,1 km/h N 9,2 C 21,1 C 27,4 km/h
14.06.2012 16:00 22,8 C 42 % 1016,4 hPa 0,0 l/m 8,7 km/h N 9,0 C 22,0 C 23,7 km/h
14.06.2012 17:00 23,0 C 41 % 1016,1 hPa 0,0 l/m 7,9 km/h N 9,0 C 22,6 C 21,3 km/h
14.06.2012 18:00 23,2 C 42 % 1016,2 hPa 0,0 l/m 4,6 km/h N 9,6 C 23,1 C 14,5 km/h
14.06.2012 19:00 23,0 C 42 % 1016,2 hPa 0,0 l/m 3,2 km/h N 9,2 C 23,0 C 12,1 km/h
14.06.2012 20:00 22,5 C 46 % 1016,5 hPa 0,0 l/m 0,1 km/h N 10,3 C 22,5 C 2,0 km/h
14.06.2012 21:00 18,8 C 59 % 1017,3 hPa 0,0 l/m 0,0 km/h N 10,5 C 18,8 C 0,8 km/h
14.06.2012 22:00 15,8 C 71 % 1017,9 hPa 0,0 l/m 0,1 km/h N 10,5 C 15,8 C 2,4 km/h
14.06.2012 23:00 14,5 C 76 % 1018,4 hPa 0,0 l/m 1,2 km/h N 10,3 C 14,5 C 5,2 km/h
15.06.2012 00:00 15,4 C 73 % 1019,0 hPa 0,0 l/m 2,2 km/h N 10,5 C 15,4 C 8,4 km/h
15.06.2012 01:00 15,3 C 76 % 1019,3 hPa 0,3 l/m 3,3 km/h N 11,0 C 15,3 C 12,5 km/h
15.06.2012 02:00 14,1 C 82 % 1019,3 hPa 0,8 l/m 0,5 km/h N 11,1 C 14,1 C 5,2 km/h
15.06.2012 03:00 13,5 C 82 % 1019,2 hPa 0,0 l/m 0,3 km/h N 10,4 C 13,5 C 2,8 km/h
15.06.2012 04:00 12,7 C 81 % 1019,4 hPa 0,0 l/m 0,0 km/h N 9,6 C 12,7 C 0,0 km/h
15.06.2012 05:00 11,8 C 81 % 1020,0 hPa 0,0 l/m 0,0 km/h N 8,6 C 11,8 C 0,4 km/h
15.06.2012 06:00 12,1 C 79 % 1020,3 hPa 0,0 l/m 0,1 km/h N 8,7 C 12,1 C 0,8 km/h
15.06.2012 07:00 13,6 C 79 % 1020,7 hPa 0,0 l/m 2,2 km/h N 10,1 C 13,6 C 7,6 km/h
15.06.2012 08:00 15,4 C 82 % 1020,9 hPa 0,0 l/m 1,8 km/h N 12,2 C 15,4 C 7,6 km/h
15.06.2012 09:00 17,4 C 74 % 1020,9 hPa 0,0 l/m 1,3 km/h N 12,8 C 17,4 C 6,0 km/h
15.06.2012 10:00 19,6 C 67 % 1020,8 hPa 0,0 l/m 1,7 km/h N 13,3 C 19,6 C 7,6 km/h
15.06.2012 11:00 21,3 C 61 % 1020,5 hPa 0,0 l/m 2,1 km/h N 13,4 C 21,3 C 9,3 km/h
15.06.2012 12:00 22,7 C 57 % 1020,3 hPa 0,0 l/m 1,5 km/h N 13,8 C 22,7 C 9,6 km/h
15.06.2012 13:00 23,9 C 49 % 1019,8 hPa 0,0 l/m 2,6 km/h N 12,5 C 23,9 C 11,3 km/h
15.06.2012 14:00 25,3 C 46 % 1019,5 hPa 0,0 l/m 2,3 km/h N 12,7 C 25,3 C 10,9 km/h
15.06.2012 15:00 25,6 C 47 % 1019,4 hPa 0,0 l/m 2,9 km/h N 13,5 C 25,6 C 12,9 km/h
15.06.2012 16:00 25,4 C 52 % 1019,2 hPa 0,0 l/m 3,3 km/h N 14,6 C 25,4 C 16,9 km/h
15.06.2012 17:00 25,6 C 50 % 1018,9 hPa 0,0 l/m 4,0 km/h N 14,5 C 25,6 C 13,7 km/h
15.06.2012 18:00 25,9 C 52 % 1018,7 hPa 0,0 l/m 3,0 km/h N 15,1 C 25,9 C 14,9 km/h
15.06.2012 19:00 25,3 C 55 % 1018,6 hPa 0,0 l/m 2,7 km/h N 15,5 C 25,3 C 11,7 km/h
15.06.2012 20:00 24,5 C 59 % 1018,7 hPa 0,0 l/m 0,4 km/h N 15,8 C 24,5 C 4,8 km/h
15.06.2012 21:00 21,7 C 67 % 1019,1 hPa 0,0 l/m 0,0 km/h N 15,2 C 21,7 C 0,0 km/h
15.06.2012 22:00 19,0 C 76 % 1019,1 hPa 0,0 l/m 0,0 km/h N 14,7 C 19,0 C 1,2 km/h
15.06.2012 23:00 17,6 C 80 % 1019,1 hPa 0,0 l/m 0,0 km/h N 14,1 C 17,6 C 0,0 km/h
16.06.2012 00:00 16,5 C 82 % 1018,9 hPa 0,0 l/m 0,0 km/h N 13,4 C 16,5 C 0,0 km/h
16.06.2012 01:00 15,6 C 82 % 1018,5 hPa 0,0 l/m 0,0 km/h N 12,5 C 15,6 C 0,0 km/h
16.06.2012 02:00 14,9 C 81 % 1018,2 hPa 0,0 l/m 0,0 km/h N 11,7 C 14,9 C 0,4 km/h
16.06.2012 03:00 14,4 C 80 % 1018,0 hPa 0,0 l/m 0,0 km/h N 11,0 C 14,4 C 0,0 km/h
16.06.2012 04:00 13,8 C 80 % 1017,8 hPa 0,0 l/m 0,0 km/h N 10,4 C 13,8 C 0,0 km/h
16.06.2012 05:00 13,4 C 79 % 1017,9 hPa 0,0 l/m 0,0 km/h N 9,9 C 13,4 C 0,8 km/h
16.06.2012 06:00 14,4 C 77 % 1018,1 hPa 0,0 l/m 0,0 km/h N 10,4 C 14,4 C 1,2 km/h
16.06.2012 07:00 16,3 C 75 % 1018,4 hPa 0,0 l/m 0,2 km/h N 11,9 C 16,3 C 3,2 km/h
16.06.2012 08:00 19,3 C 79 % 1018,6 hPa 0,0 l/m 0,3 km/h N 15,6 C 19,3 C 3,6 km/h
16.06.2012 09:00 23,0 C 70 % 1018,8 hPa 0,0 l/m 0,7 km/h N 17,2 C 23,0 C 5,6 km/h
16.06.2012 10:00 25,1 C 62 % 1018,7 hPa 0,0 l/m 1,7 km/h N 17,4 C 25,1 C 12,1 km/h
16.06.2012 11:00 27,1 C 60 % 1018,2 hPa 0,0 l/m 1,5 km/h N 18,6 C 27,1 C 7,6 km/h
16.06.2012 12:00 29,7 C 50 % 1017,4 hPa 0,0 l/m 2,2 km/h N 17,8 C 29,7 C 13,7 km/h
16.06.2012 13:00 32,2 C 37 % 1016,8 hPa 0,0 l/m 6,9 km/h N 15,5 C 32,2 C 21,7 km/h
16.06.2012 14:00 32,3 C 34 % 1016,4 hPa 0,0 l/m 12,3 km/h N 14,3 C 32,2 C 31,0 km/h
16.06.2012 15:00 31,8 C 35 % 1016,0 hPa 0,0 l/m 13,2 km/h N 14,5 C 31,6 C 30,6 km/h
16.06.2012 16:00 31,3 C 38 % 1015,9 hPa 0,0 l/m 13,0 km/h N 15,0 C 31,0 C 29,8 km/h
16.06.2012 17:00 30,9 C 37 % 1015,8 hPa 0,0 l/m 13,5 km/h N 14,5 C 30,5 C 33,0 km/h
16.06.2012 18:00 30,2 C 37 % 1015,8 hPa 0,0 l/m 13,2 km/h N 13,9 C 29,6 C 31,4 km/h
16.06.2012 19:00 29,3 C 38 % 1015,8 hPa 0,0 l/m 9,7 km/h N 13,6 C 29,0 C 24,9 km/h
16.06.2012 20:00 27,8 C 44 % 1015,8 hPa 0,0 l/m 9,4 km/h N 14,3 C 27,3 C 24,1 km/h
16.06.2012 21:00 26,0 C 49 % 1016,0 hPa 0,0 l/m 7,7 km/h N 14,3 C 25,7 C 22,5 km/h
16.06.2012 22:00 24,3 C 54 % 1016,2 hPa 0,0 l/m 3,8 km/h N 14,3 C 24,3 C 13,3 km/h
16.06.2012 23:00 22,9 C 59 % 1016,0 hPa 0,0 l/m 1,6 km/h N 14,3 C 22,9 C 8,1 km/h
17.06.2012 00:00 21,9 C 62 % 1015,8 hPa 0,0 l/m 1,0 km/h N 14,4 C 21,9 C 7,2 km/h
17.06.2012 01:00 21,7 C 64 % 1015,7 hPa 0,0 l/m 1,3 km/h N 14,6 C 21,7 C 8,0 km/h
17.06.2012 02:00 20,8 C 67 % 1015,8 hPa 0,0 l/m 0,3 km/h N 14,5 C 20,8 C 2,8 km/h
17.06.2012 03:00 18,4 C 74 % 1016,0 hPa 0,0 l/m 0,0 km/h N 13,6 C 18,4 C 0,0 km/h
17.06.2012 04:00 16,6 C 80 % 1016,5 hPa 0,0 l/m 0,0 km/h N 13,1 C 16,6 C 0,0 km/h
17.06.2012 05:00 15,5 C 81 % 1017,2 hPa 0,0 l/m 0,0 km/h N 12,3 C 15,5 C 0,0 km/h
17.06.2012 06:00 16,5 C 80 % 1018,1 hPa 0,0 l/m 0,3 km/h N 13,1 C 16,5 C 3,6 km/h
17.06.2012 07:00 19,3 C 77 % 1018,7 hPa 0,0 l/m 1,8 km/h N 15,2 C 19,3 C 8,9 km/h
17.06.2012 08:00 23,0 C 66 % 1019,2 hPa 0,0 l/m 6,6 km/h N 16,2 C 22,9 C 18,5 km/h
17.06.2012 09:00 24,0 C 66 % 1019,6 hPa 0,0 l/m 9,3 km/h N 17,1 C 23,2 C 21,3 km/h
17.06.2012 10:00 25,1 C 63 % 1019,8 hPa 0,0 l/m 7,1 km/h N 17,6 C 24,9 C 18,1 km/h
17.06.2012 11:00 25,9 C 59 % 1020,0 hPa 0,0 l/m 7,6 km/h N 17,3 C 25,6 C 19,3 km/h
17.06.2012 12:00 26,7 C 59 % 1020,0 hPa 0,0 l/m 7,3 km/h N 17,9 C 26,5 C 19,7 km/h
17.06.2012 13:00 27,7 C 56 % 1019,7 hPa 0,0 l/m 6,4 km/h N 18,2 C 27,6 C 20,5 km/h
17.06.2012 14:00 28,2 C 55 % 1019,5 hPa 0,0 l/m 5,5 km/h N 18,2 C 28,1 C 17,3 km/h
17.06.2012 15:00 28,2 C 55 % 1019,4 hPa 0,0 l/m 2,7 km/h N 18,3 C 28,2 C 12,5 km/h
17.06.2012 16:00 28,6 C 55 % 1019,1 hPa 0,0 l/m 0,8 km/h N 18,7 C 28,6 C 5,6 km/h
17.06.2012 17:00 29,2 C 54 % 1018,9 hPa 0,0 l/m 0,6 km/h N 19,0 C 29,2 C 5,2 km/h
17.06.2012 18:00 30,1 C 51 % 1018,7 hPa 0,0 l/m 0,3 km/h N 18,8 C 30,1 C 3,6 km/h
17.06.2012 19:00 29,1 C 56 % 1018,5 hPa 0,0 l/m 0,0 km/h N 19,4 C 29,1 C 0,4 km/h
17.06.2012 20:00 27,4 C 61 % 1018,7 hPa 0,0 l/m 0,0 km/h N 19,1 C 27,4 C 0,4 km/h
17.06.2012 21:00 24,9 C 68 % 1019,1 hPa 0,0 l/m 0,0 km/h N 18,6 C 24,9 C 1,2 km/h
17.06.2012 22:00 22,5 C 75 % 1019,4 hPa 0,0 l/m 0,1 km/h N 17,8 C 22,5 C 1,2 km/h
17.06.2012 23:00 21,5 C 78 % 1019,2 hPa 0,0 l/m 0,1 km/h N 17,4 C 21,5 C 2,8 km/h
Min-Datum _ 15.06.12 16.06.12 12.06.12 - 11.06.12 - 15.06.12 13.06.12 11.06.12
_ Min-Zeit 05:45 14:00 20:00 - 01:45 - 06:00 02:45 02:30
Minimum _ 11,5 C 33 % 997,2 hPa - 0,0 km/h - 8,3 C 8,1 C 0,0 km/h
Max-Datum _ 16.06.12 11.06.12 15.06.12 13.06.12 13.06.12 - 17.06.12 16.06.12 13.06.12
_ Max-Zeit 14:00 06:45 08:15 01:45 01:15 - 19:15 13:45 01:30
Maximum _ 32,7 C 83 % 1021,0 hPa 1,3 l/m 19,3 km/h
N
- 20,3 C 32,6 C 51,5 km/h
N
Durchschnitt _ 19,1 C 68 % 1012,4 hPa #8,1 l/m 4,8 km/h N 12,6 C 18,5 C 14,3 km/h